sensor_id;sensor_type;location;lat;lon;timestamp;temperature;humidity
57390;DHT22;43217;52.694;6.214;2023-07-20T00:01:45;16.60;99.90
57390;DHT22;43217;52.694;6.214;2023-07-20T00:04:13;16.60;99.90
57390;DHT22;43217;52.694;6.214;2023-07-20T00:06:39;16.50;99.90
57390;DHT22;43217;52.694;6.214;2023-07-20T00:09:08;16.50;99.90
57390;DHT22;43217;52.694;6.214;2023-07-20T00:11:36;16.50;99.90
57390;DHT22;43217;52.694;6.214;2023-07-20T00:14:05;16.50;99.90
57390;DHT22;43217;52.694;6.214;2023-07-20T00:16:31;16.40;99.90
57390;DHT22;43217;52.694;6.214;2023-07-20T00:18:57;16.40;99.90
57390;DHT22;43217;52.694;6.214;2023-07-20T00:21:23;16.40;99.90
57390;DHT22;43217;52.694;6.214;2023-07-20T00:23:48;16.40;99.90
57390;DHT22;43217;52.694;6.214;2023-07-20T00:26:14;16.40;99.90
57390;DHT22;43217;52.694;6.214;2023-07-20T00:28:40;16.40;99.90
57390;DHT22;43217;52.694;6.214;2023-07-20T00:31:05;16.40;99.90
57390;DHT22;43217;52.694;6.214;2023-07-20T00:33:31;16.40;99.90
57390;DHT22;43217;52.694;6.214;2023-07-20T00:35:56;16.40;99.90
57390;DHT22;43217;52.694;6.214;2023-07-20T00:38:22;16.40;99.90
57390;DHT22;43217;52.694;6.214;2023-07-20T00:40:48;16.40;99.90
57390;DHT22;43217;52.694;6.214;2023-07-20T00:43:15;16.30;99.90
57390;DHT22;43217;52.694;6.214;2023-07-20T00:45:41;16.30;99.90
57390;DHT22;43217;52.694;6.214;2023-07-20T00:48:07;16.30;99.90
57390;DHT22;43217;52.694;6.214;2023-07-20T00:50:34;16.30;99.90
57390;DHT22;43217;52.694;6.214;2023-07-20T00:53:00;16.30;99.90
57390;DHT22;43217;52.694;6.214;2023-07-20T00:55:26;16.30;99.90
57390;DHT22;43217;52.694;6.214;2023-07-20T00:57:54;16.30;99.90
57390;DHT22;43217;52.694;6.214;2023-07-20T01:00:19;16.30;99.90
57390;DHT22;43217;52.694;6.214;2023-07-20T01:02:45;16.20;99.90
57390;DHT22;43217;52.694;6.214;2023-07-20T01:05:12;16.20;99.90
57390;DHT22;43217;52.694;6.214;2023-07-20T01:12:57;16.20;99.90
57390;DHT22;43217;52.694;6.214;2023-07-20T01:15:23;16.20;99.90
57390;DHT22;43217;52.694;6.214;2023-07-20T01:17:48;16.20;99.90
57390;DHT22;43217;52.694;6.214;2023-07-20T01:20:15;16.10;99.90
57390;DHT22;43217;52.694;6.214;2023-07-20T01:28:35;16.10;99.90
57390;DHT22;43217;52.694;6.214;2023-07-20T01:31:30;16.10;99.90
57390;DHT22;43217;52.694;6.214;2023-07-20T01:33:58;16.10;99.90
57390;DHT22;43217;52.694;6.214;2023-07-20T01:36:28;16.00;99.90
57390;DHT22;43217;52.694;6.214;2023-07-20T01:38:54;16.00;99.90
57390;DHT22;43217;52.694;6.214;2023-07-20T01:41:21;16.00;99.90
57390;DHT22;43217;52.694;6.214;2023-07-20T01:43:47;15.90;99.90
57390;DHT22;43217;52.694;6.214;2023-07-20T01:46:13;15.90;99.90
57390;DHT22;43217;52.694;6.214;2023-07-20T01:48:39;15.90;99.90
57390;DHT22;43217;52.694;6.214;2023-07-20T01:51:04;15.80;99.90
57390;DHT22;43217;52.694;6.214;2023-07-20T01:53:30;15.70;99.90
57390;DHT22;43217;52.694;6.214;2023-07-20T01:55:57;15.70;99.90
57390;DHT22;43217;52.694;6.214;2023-07-20T01:58:22;15.60;99.90
57390;DHT22;43217;52.694;6.214;2023-07-20T02:00:48;15.60;99.90
57390;DHT22;43217;52.694;6.214;2023-07-20T02:03:14;15.60;99.90
57390;DHT22;43217;52.694;6.214;2023-07-20T02:05:42;15.50;99.90
57390;DHT22;43217;52.694;6.214;2023-07-20T02:08:08;15.40;99.90
57390;DHT22;43217;52.694;6.214;2023-07-20T02:10:35;15.40;99.90
57390;DHT22;43217;52.694;6.214;2023-07-20T02:13:00;15.40;99.90
57390;DHT22;43217;52.694;6.214;2023-07-20T02:15:26;15.40;99.90
57390;DHT22;43217;52.694;6.214;2023-07-20T02:17:53;15.30;99.90
57390;DHT22;43217;52.694;6.214;2023-07-20T02:20:18;15.30;99.90
57390;DHT22;43217;52.694;6.214;2023-07-20T02:22:44;15.20;99.90
57390;DHT22;43217;52.694;6.214;2023-07-20T02:25:10;15.20;99.90
57390;DHT22;43217;52.694;6.214;2023-07-20T02:27:37;15.20;99.90
57390;DHT22;43217;52.694;6.214;2023-07-20T02:30:03;15.20;99.90
57390;DHT22;43217;52.694;6.214;2023-07-20T02:32:30;15.20;99.90
57390;DHT22;43217;52.694;6.214;2023-07-20T02:34:56;15.10;99.90
57390;DHT22;43217;52.694;6.214;2023-07-20T02:37:22;15.10;99.90
57390;DHT22;43217;52.694;6.214;2023-07-20T02:39:47;15.10;99.90
57390;DHT22;43217;52.694;6.214;2023-07-20T02:42:13;15.00;99.90
57390;DHT22;43217;52.694;6.214;2023-07-20T02:44:40;15.00;99.90
57390;DHT22;43217;52.694;6.214;2023-07-20T02:47:05;15.00;99.90
57390;DHT22;43217;52.694;6.214;2023-07-20T02:49:31;14.90;99.90
57390;DHT22;43217;52.694;6.214;2023-07-20T02:51:57;14.90;99.90
57390;DHT22;43217;52.694;6.214;2023-07-20T02:54:22;14.90;99.90
57390;DHT22;43217;52.694;6.214;2023-07-20T02:56:48;14.90;99.90
57390;DHT22;43217;52.694;6.214;2023-07-20T02:59:14;14.80;99.90
57390;DHT22;43217;52.694;6.214;2023-07-20T03:01:39;14.70;99.90
57390;DHT22;43217;52.694;6.214;2023-07-20T03:04:08;14.70;99.90
57390;DHT22;43217;52.694;6.214;2023-07-20T03:06:35;14.70;99.90
57390;DHT22;43217;52.694;6.214;2023-07-20T03:09:01;14.60;99.90
57390;DHT22;43217;52.694;6.214;2023-07-20T03:11:27;14.60;99.90
57390;DHT22;43217;52.694;6.214;2023-07-20T03:13:53;14.50;99.90
57390;DHT22;43217;52.694;6.214;2023-07-20T03:16:19;14.60;99.90
57390;DHT22;43217;52.694;6.214;2023-07-20T03:18:46;14.50;99.90
57390;DHT22;43217;52.694;6.214;2023-07-20T03:21:12;14.50;99.90
57390;DHT22;43217;52.694;6.214;2023-07-20T03:23:39;14.50;99.90
57390;DHT22;43217;52.694;6.214;2023-07-20T03:26:04;14.50;99.90
57390;DHT22;43217;52.694;6.214;2023-07-20T03:28:30;14.40;99.90
57390;DHT22;43217;52.694;6.214;2023-07-20T03:30:57;14.40;99.90
57390;DHT22;43217;52.694;6.214;2023-07-20T03:33:25;14.40;99.90
57390;DHT22;43217;52.694;6.214;2023-07-20T03:35:51;14.40;99.90
57390;DHT22;43217;52.694;6.214;2023-07-20T03:38:17;14.40;99.90
57390;DHT22;43217;52.694;6.214;2023-07-20T03:40:53;14.30;99.90
57390;DHT22;43217;52.694;6.214;2023-07-20T03:43:20;14.40;99.90
57390;DHT22;43217;52.694;6.214;2023-07-20T03:45:46;14.30;99.90
57390;DHT22;43217;52.694;6.214;2023-07-20T03:48:16;14.30;99.90
57390;DHT22;43217;52.694;6.214;2023-07-20T03:50:44;14.20;99.90
57390;DHT22;43217;52.694;6.214;2023-07-20T03:53:11;14.20;99.90
57390;DHT22;43217;52.694;6.214;2023-07-20T03:55:37;14.20;99.90
57390;DHT22;43217;52.694;6.214;2023-07-20T03:58:03;14.20;99.90
57390;DHT22;43217;52.694;6.214;2023-07-20T04:00:29;14.20;99.90
57390;DHT22;43217;52.694;6.214;2023-07-20T04:02:54;14.20;99.90
57390;DHT22;43217;52.694;6.214;2023-07-20T04:05:20;14.10;99.90
57390;DHT22;43217;52.694;6.214;2023-07-20T04:07:46;14.00;99.90
57390;DHT22;43217;52.694;6.214;2023-07-20T04:10:12;14.10;99.90
57390;DHT22;43217;52.694;6.214;2023-07-20T04:12:38;14.10;99.90
57390;DHT22;43217;52.694;6.214;2023-07-20T04:15:04;14.10;99.90
57390;DHT22;43217;52.694;6.214;2023-07-20T04:17:30;14.10;99.90
57390;DHT22;43217;52.694;6.214;2023-07-20T04:19:55;14.00;99.90
57390;DHT22;43217;52.694;6.214;2023-07-20T04:22:21;14.00;99.90
57390;DHT22;43217;52.694;6.214;2023-07-20T04:24:47;14.00;99.90
57390;DHT22;43217;52.694;6.214;2023-07-20T04:27:13;14.10;99.90
57390;DHT22;43217;52.694;6.214;2023-07-20T04:29:38;14.00;99.90
57390;DHT22;43217;52.694;6.214;2023-07-20T04:32:04;14.10;99.90
57390;DHT22;43217;52.694;6.214;2023-07-20T04:34:30;14.10;99.90
57390;DHT22;43217;52.694;6.214;2023-07-20T04:36:56;14.30;99.90
57390;DHT22;43217;52.694;6.214;2023-07-20T04:39:22;14.60;99.90
57390;DHT22;43217;52.694;6.214;2023-07-20T04:41:47;15.00;99.90
57390;DHT22;43217;52.694;6.214;2023-07-20T04:44:13;15.40;99.90
57390;DHT22;43217;52.694;6.214;2023-07-20T04:46:39;15.60;99.90
57390;DHT22;43217;52.694;6.214;2023-07-20T04:49:06;15.70;99.90
57390;DHT22;43217;52.694;6.214;2023-07-20T04:51:31;15.80;99.90
57390;DHT22;43217;52.694;6.214;2023-07-20T04:53:57;15.90;99.90
57390;DHT22;43217;52.694;6.214;2023-07-20T04:56:24;15.90;99.90
57390;DHT22;43217;52.694;6.214;2023-07-20T04:58:50;16.00;99.90
57390;DHT22;43217;52.694;6.214;2023-07-20T05:01:16;16.00;99.90
57390;DHT22;43217;52.694;6.214;2023-07-20T05:03:41;16.00;99.90
57390;DHT22;43217;52.694;6.214;2023-07-20T05:06:07;16.00;99.90
57390;DHT22;43217;52.694;6.214;2023-07-20T05:08:33;15.90;99.90
57390;DHT22;43217;52.694;6.214;2023-07-20T05:10:59;16.00;99.90
57390;DHT22;43217;52.694;6.214;2023-07-20T05:13:25;16.00;99.90
57390;DHT22;43217;52.694;6.214;2023-07-20T05:15:52;16.00;99.90
57390;DHT22;43217;52.694;6.214;2023-07-20T05:18:18;16.00;99.90
57390;DHT22;43217;52.694;6.214;2023-07-20T05:20:48;15.90;99.90
57390;DHT22;43217;52.694;6.214;2023-07-20T05:23:14;15.80;99.90
57390;DHT22;43217;52.694;6.214;2023-07-20T05:25:40;15.90;99.90
57390;DHT22;43217;52.694;6.214;2023-07-20T05:28:06;15.90;99.90
57390;DHT22;43217;52.694;6.214;2023-07-20T05:30:32;15.90;99.90
57390;DHT22;43217;52.694;6.214;2023-07-20T05:32:57;15.90;99.90
57390;DHT22;43217;52.694;6.214;2023-07-20T05:35:23;15.90;99.90
57390;DHT22;43217;52.694;6.214;2023-07-20T05:37:49;15.90;99.90
57390;DHT22;43217;52.694;6.214;2023-07-20T05:40:15;16.00;99.90
57390;DHT22;43217;52.694;6.214;2023-07-20T05:42:45;16.00;99.90
57390;DHT22;43217;52.694;6.214;2023-07-20T05:45:11;16.00;99.90
57390;DHT22;43217;52.694;6.214;2023-07-20T05:47:37;16.00;99.90
57390;DHT22;43217;52.694;6.214;2023-07-20T05:50:03;16.10;99.90
57390;DHT22;43217;52.694;6.214;2023-07-20T05:52:29;16.20;99.90
57390;DHT22;43217;52.694;6.214;2023-07-20T05:54:55;16.20;99.90
57390;DHT22;43217;52.694;6.214;2023-07-20T05:57:20;16.30;99.90
57390;DHT22;43217;52.694;6.214;2023-07-20T05:59:46;16.40;99.90
57390;DHT22;43217;52.694;6.214;2023-07-20T06:02:12;16.50;99.90
57390;DHT22;43217;52.694;6.214;2023-07-20T06:04:38;16.50;99.90
57390;DHT22;43217;52.694;6.214;2023-07-20T06:07:04;16.50;99.90
57390;DHT22;43217;52.694;6.214;2023-07-20T06:09:30;16.60;99.90
57390;DHT22;43217;52.694;6.214;2023-07-20T06:11:56;16.60;99.90
57390;DHT22;43217;52.694;6.214;2023-07-20T06:14:22;16.60;99.90
57390;DHT22;43217;52.694;6.214;2023-07-20T06:16:47;16.70;99.90
57390;DHT22;43217;52.694;6.214;2023-07-20T06:19:13;16.80;99.90
57390;DHT22;43217;52.694;6.214;2023-07-20T06:21:39;16.90;99.90
57390;DHT22;43217;52.694;6.214;2023-07-20T06:24:05;16.90;99.90
57390;DHT22;43217;52.694;6.214;2023-07-20T06:26:31;17.00;99.90
57390;DHT22;43217;52.694;6.214;2023-07-20T06:28:57;17.00;99.90
57390;DHT22;43217;52.694;6.214;2023-07-20T06:31:23;17.20;99.90
57390;DHT22;43217;52.694;6.214;2023-07-20T06:33:49;17.30;99.90
57390;DHT22;43217;52.694;6.214;2023-07-20T06:36:18;17.50;99.90
57390;DHT22;43217;52.694;6.214;2023-07-20T06:38:44;17.60;99.90
57390;DHT22;43217;52.694;6.214;2023-07-20T06:41:09;17.80;99.90
57390;DHT22;43217;52.694;6.214;2023-07-20T06:43:35;17.80;99.90
57390;DHT22;43217;52.694;6.214;2023-07-20T06:46:01;18.00;99.90
57390;DHT22;43217;52.694;6.214;2023-07-20T06:48:26;18.60;99.90
57390;DHT22;43217;52.694;6.214;2023-07-20T06:50:52;19.60;99.90
57390;DHT22;43217;52.694;6.214;2023-07-20T06:53:19;20.80;99.90
57390;DHT22;43217;52.694;6.214;2023-07-20T06:55:45;21.40;99.90
57390;DHT22;43217;52.694;6.214;2023-07-20T06:58:11;22.10;99.90
57390;DHT22;43217;52.694;6.214;2023-07-20T07:00:37;22.90;99.90
57390;DHT22;43217;52.694;6.214;2023-07-20T07:03:02;23.60;99.90
57390;DHT22;43217;52.694;6.214;2023-07-20T07:05:28;24.30;99.90
57390;DHT22;43217;52.694;6.214;2023-07-20T07:07:54;25.00;99.90
57390;DHT22;43217;52.694;6.214;2023-07-20T07:10:20;25.50;99.90
57390;DHT22;43217;52.694;6.214;2023-07-20T07:12:45;26.10;99.90
57390;DHT22;43217;52.694;6.214;2023-07-20T07:15:11;26.20;99.90
57390;DHT22;43217;52.694;6.214;2023-07-20T07:17:37;25.60;98.90
57390;DHT22;43217;52.694;6.214;2023-07-20T07:20:04;25.60;98.50
57390;DHT22;43217;52.694;6.214;2023-07-20T07:22:30;25.30;97.40
57390;DHT22;43217;52.694;6.214;2023-07-20T07:24:56;25.20;98.00
57390;DHT22;43217;52.694;6.214;2023-07-20T07:27:21;25.70;97.30
57390;DHT22;43217;52.694;6.214;2023-07-20T07:29:47;26.20;96.60
57390;DHT22;43217;52.694;6.214;2023-07-20T07:32:15;26.80;96.00
57390;DHT22;43217;52.694;6.214;2023-07-20T07:34:41;27.40;93.10
57390;DHT22;43217;52.694;6.214;2023-07-20T07:37:06;27.40;90.70
57390;DHT22;43217;52.694;6.214;2023-07-20T07:39:32;26.80;90.50
57390;DHT22;43217;52.694;6.214;2023-07-20T07:41:58;26.30;90.00
57390;DHT22;43217;52.694;6.214;2023-07-20T07:44:24;25.80;90.30
57390;DHT22;43217;52.694;6.214;2023-07-20T07:46:50;26.00;92.20
57390;DHT22;43217;52.694;6.214;2023-07-20T07:49:16;26.40;92.00
57390;DHT22;43217;52.694;6.214;2023-07-20T07:51:42;27.10;90.80
57390;DHT22;43217;52.694;6.214;2023-07-20T07:54:08;27.60;86.20
57390;DHT22;43217;52.694;6.214;2023-07-20T07:56:33;27.40;82.70
57390;DHT22;43217;52.694;6.214;2023-07-20T07:58:59;26.90;82.70
57390;DHT22;43217;52.694;6.214;2023-07-20T08:01:25;26.10;81.20
57390;DHT22;43217;52.694;6.214;2023-07-20T08:03:51;25.20;82.00
57390;DHT22;43217;52.694;6.214;2023-07-20T08:06:16;24.40;86.50
57390;DHT22;43217;52.694;6.214;2023-07-20T08:08:42;23.80;90.40
57390;DHT22;43217;52.694;6.214;2023-07-20T08:11:08;23.20;92.30
57390;DHT22;43217;52.694;6.214;2023-07-20T08:13:34;22.80;94.80
57390;DHT22;43217;52.694;6.214;2023-07-20T08:16:01;22.50;96.50
57390;DHT22;43217;52.694;6.214;2023-07-20T08:18:28;22.80;98.10
57390;DHT22;43217;52.694;6.214;2023-07-20T08:20:54;23.60;97.90
57390;DHT22;43217;52.694;6.214;2023-07-20T08:23:20;23.90;95.70
57390;DHT22;43217;52.694;6.214;2023-07-20T08:25:45;23.70;93.90
57390;DHT22;43217;52.694;6.214;2023-07-20T08:28:13;23.40;93.50
57390;DHT22;43217;52.694;6.214;2023-07-20T08:30:44;23.10;95.00
57390;DHT22;43217;52.694;6.214;2023-07-20T08:33:10;22.70;95.00
57390;DHT22;43217;52.694;6.214;2023-07-20T08:35:37;22.50;97.20
57390;DHT22;43217;52.694;6.214;2023-07-20T08:38:03;22.50;98.30
57390;DHT22;43217;52.694;6.214;2023-07-20T08:40:31;22.50;98.50
57390;DHT22;43217;52.694;6.214;2023-07-20T08:42:58;22.80;98.80
57390;DHT22;43217;52.694;6.214;2023-07-20T08:45:27;23.30;98.50
57390;DHT22;43217;52.694;6.214;2023-07-20T08:47:56;24.10;96.60
57390;DHT22;43217;52.694;6.214;2023-07-20T08:50:28;24.90;95.30
57390;DHT22;43217;52.694;6.214;2023-07-20T08:52:57;25.60;93.40
57390;DHT22;43217;52.694;6.214;2023-07-20T08:55:24;26.10;91.50
57390;DHT22;43217;52.694;6.214;2023-07-20T08:57:55;26.00;89.20
57390;DHT22;43217;52.694;6.214;2023-07-20T09:00:22;25.50;87.80
57390;DHT22;43217;52.694;6.214;2023-07-20T09:02:50;25.00;87.60
57390;DHT22;43217;52.694;6.214;2023-07-20T09:05:17;24.50;85.20
57390;DHT22;43217;52.694;6.214;2023-07-20T09:07:43;24.00;87.70
57390;DHT22;43217;52.694;6.214;2023-07-20T09:10:09;23.60;86.90
57390;DHT22;43217;52.694;6.214;2023-07-20T09:12:39;23.30;87.40
57390;DHT22;43217;52.694;6.214;2023-07-20T09:15:06;23.20;89.40
57390;DHT22;43217;52.694;6.214;2023-07-20T09:17:32;23.00;91.20
57390;DHT22;43217;52.694;6.214;2023-07-20T09:19:59;23.00;91.60
57390;DHT22;43217;52.694;6.214;2023-07-20T09:22:30;23.00;91.00
57390;DHT22;43217;52.694;6.214;2023-07-20T09:24:57;22.80;90.40
57390;DHT22;43217;52.694;6.214;2023-07-20T09:27:34;22.80;91.40
57390;DHT22;43217;52.694;6.214;2023-07-20T09:30:02;22.80;92.10
57390;DHT22;43217;52.694;6.214;2023-07-20T09:32:28;22.80;92.80
57390;DHT22;43217;52.694;6.214;2023-07-20T09:34:54;22.80;93.70
57390;DHT22;43217;52.694;6.214;2023-07-20T09:37:23;23.00;95.20
57390;DHT22;43217;52.694;6.214;2023-07-20T09:39:52;23.30;94.00
57390;DHT22;43217;52.694;6.214;2023-07-20T09:42:18;23.40;94.80
57390;DHT22;43217;52.694;6.214;2023-07-20T09:44:44;23.60;94.90
57390;DHT22;43217;52.694;6.214;2023-07-20T09:47:10;23.90;93.30
57390;DHT22;43217;52.694;6.214;2023-07-20T09:49:40;23.90;93.10
57390;DHT22;43217;52.694;6.214;2023-07-20T09:52:10;23.90;90.70
57390;DHT22;43217;52.694;6.214;2023-07-20T09:54:40;23.60;90.30
57390;DHT22;43217;52.694;6.214;2023-07-20T09:57:09;23.50;91.50
57390;DHT22;43217;52.694;6.214;2023-07-20T09:59:35;23.50;91.00
57390;DHT22;43217;52.694;6.214;2023-07-20T10:02:03;23.50;91.70
57390;DHT22;43217;52.694;6.214;2023-07-20T10:04:30;23.40;92.00
57390;DHT22;43217;52.694;6.214;2023-07-20T10:06:59;23.30;91.90
57390;DHT22;43217;52.694;6.214;2023-07-20T10:09:30;23.00;92.70
57390;DHT22;43217;52.694;6.214;2023-07-20T10:11:58;22.60;93.40
57390;DHT22;43217;52.694;6.214;2023-07-20T10:14:26;22.30;93.50
57390;DHT22;43217;52.694;6.214;2023-07-20T10:16:57;22.00;93.40
57390;DHT22;43217;52.694;6.214;2023-07-20T10:19:33;21.70;94.00
57390;DHT22;43217;52.694;6.214;2023-07-20T10:22:19;21.60;95.50
57390;DHT22;43217;52.694;6.214;2023-07-20T10:24:46;21.60;95.90
57390;DHT22;43217;52.694;6.214;2023-07-20T10:27:13;21.50;96.80
57390;DHT22;43217;52.694;6.214;2023-07-20T10:29:40;21.40;98.00
57390;DHT22;43217;52.694;6.214;2023-07-20T10:32:08;21.50;98.30
57390;DHT22;43217;52.694;6.214;2023-07-20T10:34:34;21.50;98.50
57390;DHT22;43217;52.694;6.214;2023-07-20T10:37:00;21.60;98.40
57390;DHT22;43217;52.694;6.214;2023-07-20T10:42:09;21.70;98.50
57390;DHT22;43217;52.694;6.214;2023-07-20T10:44:41;21.80;98.10
57390;DHT22;43217;52.694;6.214;2023-07-20T10:47:12;22.00;98.40
57390;DHT22;43217;52.694;6.214;2023-07-20T10:50:00;22.00;97.80
57390;DHT22;43217;52.694;6.214;2023-07-20T10:52:26;22.10;97.30
57390;DHT22;43217;52.694;6.214;2023-07-20T10:54:52;22.20;98.20
57390;DHT22;43217;52.694;6.214;2023-07-20T10:57:23;22.40;98.20
57390;DHT22;43217;52.694;6.214;2023-07-20T10:59:49;22.50;98.70
57390;DHT22;43217;52.694;6.214;2023-07-20T11:02:18;22.80;99.00
57390;DHT22;43217;52.694;6.214;2023-07-20T11:04:46;23.10;97.50
57390;DHT22;43217;52.694;6.214;2023-07-20T11:07:17;23.10;95.30
57390;DHT22;43217;52.694;6.214;2023-07-20T11:09:43;23.00;95.40
57390;DHT22;43217;52.694;6.214;2023-07-20T11:12:14;23.00;95.80
57390;DHT22;43217;52.694;6.214;2023-07-20T11:14:52;23.00;96.60
57390;DHT22;43217;52.694;6.214;2023-07-20T11:17:19;22.80;95.80
57390;DHT22;43217;52.694;6.214;2023-07-20T11:19:48;22.70;95.10
57390;DHT22;43217;52.694;6.214;2023-07-20T11:22:16;22.70;95.70
57390;DHT22;43217;52.694;6.214;2023-07-20T11:24:43;22.70;96.50
57390;DHT22;43217;52.694;6.214;2023-07-20T11:27:08;22.80;95.60
57390;DHT22;43217;52.694;6.214;2023-07-20T11:29:37;22.70;96.00
57390;DHT22;43217;52.694;6.214;2023-07-20T11:32:03;22.80;96.30
57390;DHT22;43217;52.694;6.214;2023-07-20T11:34:31;22.80;96.00
57390;DHT22;43217;52.694;6.214;2023-07-20T11:36:57;22.80;96.40
57390;DHT22;43217;52.694;6.214;2023-07-20T11:39:23;22.80;96.40
57390;DHT22;43217;52.694;6.214;2023-07-20T11:41:55;22.80;95.70
57390;DHT22;43217;52.694;6.214;2023-07-20T11:44:22;22.70;95.20
57390;DHT22;43217;52.694;6.214;2023-07-20T11:47:02;22.70;95.30
57390;DHT22;43217;52.694;6.214;2023-07-20T11:49:29;22.60;95.00
57390;DHT22;43217;52.694;6.214;2023-07-20T11:51:55;22.50;94.90
57390;DHT22;43217;52.694;6.214;2023-07-20T11:54:22;22.40;94.80
57390;DHT22;43217;52.694;6.214;2023-07-20T11:56:48;22.30;94.80
57390;DHT22;43217;52.694;6.214;2023-07-20T11:59:14;22.30;94.70
57390;DHT22;43217;52.694;6.214;2023-07-20T12:01:39;22.40;95.20
57390;DHT22;43217;52.694;6.214;2023-07-20T12:04:06;22.50;95.90
57390;DHT22;43217;52.694;6.214;2023-07-20T12:06:32;22.60;94.60
57390;DHT22;43217;52.694;6.214;2023-07-20T12:08:59;22.80;93.70
57390;DHT22;43217;52.694;6.214;2023-07-20T12:11:51;23.10;94.00
57390;DHT22;43217;52.694;6.214;2023-07-20T12:14:17;23.50;91.40
57390;DHT22;43217;52.694;6.214;2023-07-20T12:16:43;23.50;91.10
57390;DHT22;43217;52.694;6.214;2023-07-20T12:19:11;23.50;91.70
57390;DHT22;43217;52.694;6.214;2023-07-20T12:21:39;23.50;91.00
57390;DHT22;43217;52.694;6.214;2023-07-20T12:24:06;23.30;90.50
57390;DHT22;43217;52.694;6.214;2023-07-20T12:26:33;23.30;89.00
57390;DHT22;43217;52.694;6.214;2023-07-20T12:28:59;23.10;90.60
57390;DHT22;43217;52.694;6.214;2023-07-20T12:31:26;23.00;91.50
57390;DHT22;43217;52.694;6.214;2023-07-20T12:33:53;23.00;91.90
57390;DHT22;43217;52.694;6.214;2023-07-20T12:36:20;23.00;91.80
57390;DHT22;43217;52.694;6.214;2023-07-20T12:38:46;23.10;91.90
57390;DHT22;43217;52.694;6.214;2023-07-20T12:41:13;23.40;92.00
57390;DHT22;43217;52.694;6.214;2023-07-20T12:43:42;23.60;91.90
57390;DHT22;43217;52.694;6.214;2023-07-20T12:46:10;23.60;91.10
57390;DHT22;43217;52.694;6.214;2023-07-20T12:48:37;23.60;90.80
57390;DHT22;43217;52.694;6.214;2023-07-20T12:51:05;23.50;90.60
57390;DHT22;43217;52.694;6.214;2023-07-20T12:53:32;23.50;90.20
57390;DHT22;43217;52.694;6.214;2023-07-20T12:55:58;23.40;90.10
57390;DHT22;43217;52.694;6.214;2023-07-20T12:58:24;23.40;89.80
57390;DHT22;43217;52.694;6.214;2023-07-20T13:00:49;23.40;90.50
57390;DHT22;43217;52.694;6.214;2023-07-20T13:03:15;23.30;89.60
57390;DHT22;43217;52.694;6.214;2023-07-20T13:05:44;23.30;88.80
57390;DHT22;43217;52.694;6.214;2023-07-20T13:08:09;23.30;88.60
57390;DHT22;43217;52.694;6.214;2023-07-20T13:10:35;23.30;87.70
57390;DHT22;43217;52.694;6.214;2023-07-20T13:13:01;23.30;87.30
57390;DHT22;43217;52.694;6.214;2023-07-20T13:15:31;23.30;89.00
57390;DHT22;43217;52.694;6.214;2023-07-20T13:17:58;23.30;86.30
57390;DHT22;43217;52.694;6.214;2023-07-20T13:20:25;23.30;86.40
57390;DHT22;43217;52.694;6.214;2023-07-20T13:22:50;23.30;88.20
57390;DHT22;43217;52.694;6.214;2023-07-20T13:25:16;23.40;87.00
57390;DHT22;43217;52.694;6.214;2023-07-20T13:27:42;23.50;86.00
57390;DHT22;43217;52.694;6.214;2023-07-20T13:30:08;23.60;86.40
57390;DHT22;43217;52.694;6.214;2023-07-20T13:32:35;23.60;85.30
57390;DHT22;43217;52.694;6.214;2023-07-20T13:35:01;23.80;86.70
57390;DHT22;43217;52.694;6.214;2023-07-20T13:37:27;23.90;84.60
57390;DHT22;43217;52.694;6.214;2023-07-20T13:39:54;23.90;83.10
57390;DHT22;43217;52.694;6.214;2023-07-20T13:42:19;23.90;82.50
57390;DHT22;43217;52.694;6.214;2023-07-20T13:44:50;23.80;83.20
57390;DHT22;43217;52.694;6.214;2023-07-20T13:47:15;23.70;84.70
57390;DHT22;43217;52.694;6.214;2023-07-20T13:49:41;23.70;86.50
57390;DHT22;43217;52.694;6.214;2023-07-20T13:52:07;23.80;86.90
57390;DHT22;43217;52.694;6.214;2023-07-20T13:54:32;23.80;85.20
57390;DHT22;43217;52.694;6.214;2023-07-20T13:56:58;23.70;84.30
57390;DHT22;43217;52.694;6.214;2023-07-20T13:59:24;23.70;85.20
57390;DHT22;43217;52.694;6.214;2023-07-20T14:01:50;23.70;85.50
57390;DHT22;43217;52.694;6.214;2023-07-20T14:04:16;23.60;85.20
57390;DHT22;43217;52.694;6.214;2023-07-20T14:06:42;23.60;83.30
57390;DHT22;43217;52.694;6.214;2023-07-20T14:09:08;23.50;80.60
57390;DHT22;43217;52.694;6.214;2023-07-20T14:11:34;23.50;79.50
57390;DHT22;43217;52.694;6.214;2023-07-20T14:14:00;23.50;78.80
57390;DHT22;43217;52.694;6.214;2023-07-20T14:16:25;23.40;80.50
57390;DHT22;43217;52.694;6.214;2023-07-20T14:18:51;23.50;79.10
57390;DHT22;43217;52.694;6.214;2023-07-20T14:21:19;23.50;81.30
57390;DHT22;43217;52.694;6.214;2023-07-20T14:23:46;23.40;80.00
57390;DHT22;43217;52.694;6.214;2023-07-20T14:26:12;23.40;79.40
57390;DHT22;43217;52.694;6.214;2023-07-20T14:28:38;23.40;78.00
57390;DHT22;43217;52.694;6.214;2023-07-20T14:31:04;23.30;79.30
57390;DHT22;43217;52.694;6.214;2023-07-20T14:33:31;23.30;77.40
57390;DHT22;43217;52.694;6.214;2023-07-20T14:35:56;23.30;78.20
57390;DHT22;43217;52.694;6.214;2023-07-20T14:38:22;23.40;77.50
57390;DHT22;43217;52.694;6.214;2023-07-20T14:40:48;23.30;78.80
57390;DHT22;43217;52.694;6.214;2023-07-20T14:43:14;23.30;78.60
57390;DHT22;43217;52.694;6.214;2023-07-20T14:45:42;23.30;78.40
57390;DHT22;43217;52.694;6.214;2023-07-20T14:48:08;23.30;77.60
57390;DHT22;43217;52.694;6.214;2023-07-20T14:50:34;23.30;77.10
57390;DHT22;43217;52.694;6.214;2023-07-20T14:53:00;23.20;75.60
57390;DHT22;43217;52.694;6.214;2023-07-20T14:55:26;23.20;75.70
57390;DHT22;43217;52.694;6.214;2023-07-20T14:57:52;23.20;76.80
57390;DHT22;43217;52.694;6.214;2023-07-20T15:00:18;23.20;77.70
57390;DHT22;43217;52.694;6.214;2023-07-20T15:02:44;23.30;76.60
57390;DHT22;43217;52.694;6.214;2023-07-20T15:05:10;23.20;76.10
57390;DHT22;43217;52.694;6.214;2023-07-20T15:07:37;23.10;77.60
57390;DHT22;43217;52.694;6.214;2023-07-20T15:10:03;23.00;77.70
57390;DHT22;43217;52.694;6.214;2023-07-20T15:12:30;22.90;77.90
57390;DHT22;43217;52.694;6.214;2023-07-20T15:15:07;22.80;77.60
57390;DHT22;43217;52.694;6.214;2023-07-20T15:17:34;22.70;78.50
57390;DHT22;43217;52.694;6.214;2023-07-20T15:20:02;22.60;79.30
57390;DHT22;43217;52.694;6.214;2023-07-20T15:22:33;22.60;78.80
57390;DHT22;43217;52.694;6.214;2023-07-20T15:24:59;22.60;79.00
57390;DHT22;43217;52.694;6.214;2023-07-20T15:27:26;22.70;79.80
57390;DHT22;43217;52.694;6.214;2023-07-20T15:29:52;22.80;80.10
57390;DHT22;43217;52.694;6.214;2023-07-20T15:32:18;22.90;81.30
57390;DHT22;43217;52.694;6.214;2023-07-20T15:34:44;23.00;81.60
57390;DHT22;43217;52.694;6.214;2023-07-20T15:37:10;23.10;82.30
57390;DHT22;43217;52.694;6.214;2023-07-20T15:39:36;23.10;83.40
57390;DHT22;43217;52.694;6.214;2023-07-20T15:42:02;23.20;83.20